Time;durP1;ratioP1;P1;durP2;ratioP2;P2;SDS_P1;SDS_P2;PMS_P1;PMS_P2;Temp;Humidity;BMP_temperature;BMP_pressure;BME280_temperature;BME280_humidity;BME280_pressure;Samples;Min_cycle;Max_cycle;Signal;HPM_P1;HPM_P2
2023/01/08 00:01:21;;;;;;;6.93;2.95;;;9.00;99.90;;;;;;4923210;28;20456;-82
2023/01/08 00:03:47;;;;;;;9.40;2.78;;;9.10;99.90;;;;;;4925171;28;20056;-82
2023/01/08 00:06:16;;;;;;;3.53;2.38;;;9.10;99.90;;;;;;4919959;29;20075;-82
2023/01/08 00:08:42;;;;;;;3.22;2.55;;;9.10;99.90;;;;;;4926424;29;20044;-82
2023/01/08 00:11:08;;;;;;;5.30;3.58;;;9.10;99.90;;;;;;4920507;28;20520;-82
2023/01/08 00:13:34;;;;;;;3.42;3.17;;;9.20;99.90;;;;;;4920492;28;20375;-82
2023/01/08 00:16:09;;;;;;;6.50;3.08;;;9.20;99.90;;;;;;4923777;29;20048;-83
2023/01/08 00:18:35;;;;;;;4.93;2.67;;;9.20;99.90;;;;;;4928217;28;20043;-82
2023/01/08 00:21:01;;;;;;;5.85;2.78;;;9.30;99.90;;;;;;4926200;28;20454;-82
2023/01/08 00:23:27;;;;;;;4.40;2.97;;;9.30;99.90;;;;;;4917021;28;20572;-82
2023/01/08 00:25:52;;;;;;;5.40;3.05;;;9.30;99.90;;;;;;4923888;28;20131;-83
2023/01/08 00:28:19;;;;;;;7.80;3.22;;;9.30;99.90;;;;;;4925983;29;20047;-82
2023/01/08 00:30:45;;;;;;;4.47;2.88;;;9.30;99.90;;;;;;4925734;28;20031;-82
2023/01/08 00:33:11;;;;;;;4.72;3.35;;;9.30;99.90;;;;;;4924426;28;20054;-82
2023/01/08 00:35:38;;;;;;;4.70;3.22;;;9.30;99.90;;;;;;4925298;29;20127;-82
2023/01/08 00:38:03;;;;;;;4.00;3.55;;;9.30;99.90;;;;;;4925386;29;20462;-82
2023/01/08 00:40:29;;;;;;;6.30;3.00;;;9.20;99.90;;;;;;4925301;28;20123;-83
2023/01/08 00:42:55;;;;;;;6.75;2.70;;;9.20;99.90;;;;;;4923418;29;20078;-82
2023/01/08 00:45:20;;;;;;;2.70;2.20;;;9.20;99.90;;;;;;4923913;28;20045;-82
2023/01/08 00:47:46;;;;;;;5.63;3.17;;;9.20;99.90;;;;;;4924393;29;20082;-82
2023/01/08 00:50:12;;;;;;;3.88;2.80;;;9.20;99.90;;;;;;4904985;28;20099;-82
2023/01/08 00:52:38;;;;;;;3.00;2.25;;;9.20;99.90;;;;;;4923306;29;20449;-82
2023/01/08 00:55:04;;;;;;;6.07;1.92;;;9.20;99.90;;;;;;4906886;29;20043;-83
2023/01/08 00:57:37;;;;;;;3.97;2.08;;;9.10;99.90;;;;;;4907471;28;20392;-82
2023/01/08 01:00:05;;;;;;;2.42;1.52;;;9.10;99.90;;;;;;4912227;29;20095;-83
2023/01/08 01:02:31;;;;;;;4.18;2.35;;;9.00;99.90;;;;;;4923884;28;20118;-82
2023/01/08 01:04:56;;;;;;;2.47;1.55;;;9.00;99.90;;;;;;4907935;28;20134;-82
2023/01/08 01:07:22;;;;;;;2.83;1.70;;;9.00;99.90;;;;;;4939405;29;20040;-82
2023/01/08 01:09:48;;;;;;;8.07;2.60;;;9.00;99.90;;;;;;4924064;29;20085;-82
2023/01/08 01:12:13;;;;;;;4.00;1.83;;;8.90;99.90;;;;;;4924663;28;20784;-82
2023/01/08 01:14:42;;;;;;;2.65;1.83;;;8.90;99.90;;;;;;4924967;29;20054;-82
2023/01/08 01:17:10;;;;;;;2.17;1.42;;;8.90;99.90;;;;;;4923176;29;20455;-82
2023/01/08 01:19:35;;;;;;;1.55;0.90;;;8.80;99.90;;;;;;4924489;29;20038;-82
2023/01/08 01:22:01;;;;;;;3.10;1.48;;;8.80;99.90;;;;;;4907671;29;20067;-82
2023/01/08 01:24:26;;;;;;;3.05;1.83;;;8.80;99.90;;;;;;4923559;29;20036;-82
2023/01/08 01:26:52;;;;;;;1.05;0.85;;;8.80;99.90;;;;;;4928006;29;20043;-82
2023/01/08 01:29:18;;;;;;;5.68;2.30;;;8.80;99.90;;;;;;4924815;29;20081;-82
2023/01/08 01:31:43;;;;;;;4.15;1.25;;;8.80;99.90;;;;;;4921940;29;20075;-82
2023/01/08 01:34:09;;;;;;;4.40;1.25;;;8.70;99.90;;;;;;4923084;29;20052;-82
2023/01/08 01:36:36;;;;;;;4.13;1.73;;;8.80;99.90;;;;;;4906958;29;20058;-82
2023/01/08 01:39:03;;;;;;;5.00;1.33;;;8.70;99.90;;;;;;4909136;29;20050;-82
2023/01/08 01:41:38;;;;;;;5.28;2.33;;;8.70;99.90;;;;;;4924474;29;20109;-82
2023/01/08 01:44:36;;;;;;;9.90;1.73;;;8.70;99.90;;;;;;4924028;28;20097;-82
2023/01/08 01:47:11;;;;;;;2.58;1.50;;;8.70;99.90;;;;;;4978003;28;20098;-82
2023/01/08 01:49:38;;;;;;;6.95;2.17;;;8.60;99.90;;;;;;4906692;28;20106;-82
2023/01/08 01:52:06;;;;;;;3.03;0.98;;;8.60;99.90;;;;;;4907320;29;20044;-82
2023/01/08 01:54:34;;;;;;;3.75;2.42;;;8.60;99.90;;;;;;4920210;29;20059;-82
2023/01/08 01:57:00;;;;;;;4.35;1.40;;;8.60;99.90;;;;;;4923961;29;20058;-82
2023/01/08 01:59:26;;;;;;;7.05;2.08;;;8.50;99.90;;;;;;4921323;28;20059;-82
2023/01/08 02:01:52;;;;;;;4.95;1.83;;;8.50;99.90;;;;;;4903832;29;20048;-82
2023/01/08 02:04:18;;;;;;;2.55;1.00;;;8.50;99.90;;;;;;4906495;28;20479;-83
2023/01/08 02:06:55;;;;;;;4.30;2.58;;;8.50;99.90;;;;;;4906733;28;20050;-82
2023/01/08 02:09:41;;;;;;;3.90;1.83;;;8.50;99.90;;;;;;4888863;28;20052;-82
2023/01/08 02:12:17;;;;;;;5.03;1.88;;;8.50;99.90;;;;;;4917556;28;20472;-82
2023/01/08 02:15:04;;;;;;;6.90;1.75;;;8.50;99.90;;;;;;4920129;28;20055;-82
2023/01/08 02:17:56;;;;;;;5.65;2.17;;;8.40;99.90;;;;;;4910253;29;20048;-82
2023/01/08 02:20:55;;;;;;;8.27;1.73;;;8.40;99.90;;;;;;4932926;28;20060;-83
2023/01/08 02:23:26;;;;;;;4.13;2.25;;;8.40;99.90;;;;;;4909806;29;20114;-80
2023/01/08 02:26:13;;;;;;;8.10;2.00;;;8.40;99.90;;;;;;4936562;29;20547;-82
2023/01/08 02:29:07;;;;;;;5.55;1.85;;;8.40;99.90;;;;;;4914469;29;20052;-82
2023/01/08 02:31:34;;;;;;;3.42;1.40;;;8.40;99.90;;;;;;4905251;29;20052;-82
2023/01/08 02:34:00;;;;;;;10.40;1.60;;;8.40;99.90;;;;;;4904524;28;20062;-82
2023/01/08 02:36:31;;;;;;;2.85;1.70;;;8.30;99.90;;;;;;4904827;29;20048;-82
2023/01/08 02:39:18;;;;;;;3.72;1.70;;;8.30;99.90;;;;;;4908325;29;20055;-82
2023/01/08 02:41:52;;;;;;;2.80;1.42;;;8.30;99.90;;;;;;4922890;29;20055;-81
2023/01/08 02:44:38;;;;;;;5.22;1.85;;;8.30;99.90;;;;;;4922676;29;20122;-82
2023/01/08 02:47:08;;;;;;;7.53;2.15;;;8.20;99.90;;;;;;4899340;29;20110;-82
2023/01/08 02:49:39;;;;;;;4.38;1.40;;;8.30;99.90;;;;;;4923275;28;20442;-82
2023/01/08 02:52:07;;;;;;;3.63;1.95;;;8.20;99.90;;;;;;4923264;28;20071;-82
2023/01/08 02:54:34;;;;;;;12.13;1.63;;;8.20;99.90;;;;;;4912675;28;20079;-82
2023/01/08 02:57:10;;;;;;;10.07;2.45;;;8.20;99.90;;;;;;4923041;28;20036;-82
2023/01/08 02:59:37;;;;;;;10.00;2.47;;;8.20;99.90;;;;;;4922969;29;20098;-82
2023/01/08 03:02:04;;;;;;;6.90;2.33;;;8.20;99.90;;;;;;4920911;29;20047;-81
2023/01/08 03:04:42;;;;;;;11.18;3.17;;;8.20;99.90;;;;;;4922828;28;20438;-81
2023/01/08 03:07:08;;;;;;;6.97;2.13;;;8.20;99.90;;;;;;4919471;28;20039;-82
2023/01/08 03:09:34;;;;;;;11.00;2.85;;;8.10;99.90;;;;;;5004672;28;20043;-82
2023/01/08 03:12:21;;;;;;;12.60;3.35;;;8.20;99.90;;;;;;4923002;28;20094;-82
2023/01/08 03:14:57;;;;;;;9.35;2.08;;;8.10;99.90;;;;;;4920325;28;20045;-82
2023/01/08 03:17:31;;;;;;;11.65;2.10;;;8.10;99.90;;;;;;4902616;29;20102;-81
2023/01/08 03:20:01;;;;;;;5.30;2.17;;;8.10;99.90;;;;;;4920718;29;20098;-82
2023/01/08 03:22:29;;;;;;;5.18;2.03;;;8.00;99.90;;;;;;4912516;28;20090;-81
2023/01/08 03:24:58;;;;;;;6.20;2.05;;;8.10;99.90;;;;;;4922342;29;20052;-81
2023/01/08 03:27:31;;;;;;;3.67;1.98;;;8.00;99.90;;;;;;5002537;28;20456;-81
2023/01/08 03:29:58;;;;;;;7.35;1.98;;;8.00;99.90;;;;;;4922665;29;20536;-81
2023/01/08 03:32:25;;;;;;;6.80;2.20;;;8.00;99.90;;;;;;4921020;29;20387;-81
2023/01/08 03:34:54;;;;;;;3.05;1.50;;;8.00;99.90;;;;;;4905727;29;20581;-82
2023/01/08 03:37:26;;;;;;;4.50;1.70;;;8.10;99.90;;;;;;4922467;29;20086;-82
2023/01/08 03:40:22;;;;;;;4.78;1.42;;;8.00;99.90;;;;;;4907473;28;20089;-81
2023/01/08 03:42:48;;;;;;;3.10;1.52;;;8.00;99.90;;;;;;4940700;29;20047;-81
2023/01/08 03:45:14;;;;;;;3.95;1.70;;;8.00;99.90;;;;;;4920493;28;20040;-81
2023/01/08 03:47:41;;;;;;;9.48;2.75;;;8.00;99.90;;;;;;4906258;28;20152;-81
2023/01/08 03:50:11;;;;;;;5.78;1.40;;;8.00;99.90;;;;;;4906592;28;20040;-81
2023/01/08 03:52:37;;;;;;;2.30;1.95;;;8.00;99.90;;;;;;4906902;28;20084;-81
2023/01/08 03:55:03;;;;;;;30.35;3.15;;;8.00;99.90;;;;;;4924012;28;20101;-81
2023/01/08 03:57:28;;;;;;;6.90;2.20;;;8.00;99.90;;;;;;4940434;28;20056;-81
2023/01/08 03:59:54;;;;;;;6.07;1.88;;;7.90;99.90;;;;;;4925323;29;20127;-81
2023/01/08 04:02:20;;;;;;;3.47;1.55;;;7.90;99.90;;;;;;4924354;29;20071;-81
2023/01/08 04:04:46;;;;;;;3.47;1.42;;;7.90;99.90;;;;;;4909106;29;20055;-81
2023/01/08 04:07:12;;;;;;;3.15;1.30;;;7.90;99.90;;;;;;4925328;29;20039;-81
2023/01/08 04:09:38;;;;;;;4.65;2.00;;;7.90;99.90;;;;;;4925979;29;20043;-81
2023/01/08 04:12:04;;;;;;;3.88;1.75;;;7.90;99.90;;;;;;4925418;29;20083;-82
2023/01/08 04:14:29;;;;;;;6.55;2.13;;;7.90;99.90;;;;;;5007481;28;20153;-81
2023/01/08 04:16:55;;;;;;;5.78;1.60;;;7.90;99.90;;;;;;4909093;29;20048;-81
2023/01/08 04:19:21;;;;;;;4.07;1.58;;;7.90;99.90;;;;;;4907726;29;20044;-82
2023/01/08 04:21:51;;;;;;;7.10;2.00;;;7.90;99.90;;;;;;4908144;29;20126;-81
2023/01/08 04:24:18;;;;;;;8.93;1.52;;;7.90;99.90;;;;;;4917595;28;20079;-82
2023/01/08 04:26:43;;;;;;;6.13;2.72;;;7.90;99.90;;;;;;4912810;29;20043;-81
2023/01/08 04:29:11;;;;;;;6.53;2.40;;;7.90;99.90;;;;;;4924281;29;20056;-81
2023/01/08 04:31:39;;;;;;;2.65;1.40;;;7.90;99.90;;;;;;4924127;29;20446;-81
2023/01/08 04:34:05;;;;;;;2.08;1.40;;;7.90;99.90;;;;;;4925152;29;20449;-81
2023/01/08 04:36:31;;;;;;;6.20;2.90;;;7.90;99.90;;;;;;4926867;29;20067;-81
2023/01/08 04:38:56;;;;;;;4.82;2.30;;;7.90;99.90;;;;;;4922514;28;20048;-81
2023/01/08 04:41:22;;;;;;;3.50;2.95;;;7.90;99.90;;;;;;4906214;29;20123;-82
2023/01/08 04:43:47;;;;;;;4.05;2.53;;;7.90;99.90;;;;;;4905051;29;20119;-82
2023/01/08 04:46:13;;;;;;;3.72;1.65;;;7.90;99.90;;;;;;4905056;29;20572;-81
2023/01/08 04:48:39;;;;;;;2.80;1.95;;;7.90;99.90;;;;;;4905153;29;20426;-81
2023/01/08 04:51:05;;;;;;;4.57;1.85;;;8.00;99.90;;;;;;4904908;29;20048;-81
2023/01/08 04:53:34;;;;;;;8.57;2.53;;;8.00;99.90;;;;;;5005411;28;20388;-81
2023/01/08 04:56:05;;;;;;;3.15;1.25;;;8.00;99.90;;;;;;4923352;29;20487;-82
2023/01/08 04:58:31;;;;;;;6.45;2.22;;;8.00;99.90;;;;;;4924653;29;20071;-81
2023/01/08 05:00:57;;;;;;;4.72;1.58;;;8.00;99.90;;;;;;4923253;28;20048;-81
2023/01/08 05:03:22;;;;;;;4.13;2.28;;;8.00;99.90;;;;;;4924824;29;20097;-81
2023/01/08 05:05:54;;;;;;;4.32;2.22;;;8.00;99.90;;;;;;4925191;29;20447;-81
2023/01/08 05:08:20;;;;;;;4.82;1.80;;;8.00;99.90;;;;;;4924585;28;20086;-81
2023/01/08 05:10:45;;;;;;;2.70;1.85;;;7.90;99.90;;;;;;4925368;29;20490;-81
2023/01/08 05:13:11;;;;;;;4.50;2.03;;;8.00;99.90;;;;;;4924549;29;20048;-81
2023/01/08 05:15:37;;;;;;;3.28;1.40;;;7.90;99.90;;;;;;4923259;29;20490;-81
2023/01/08 05:18:04;;;;;;;5.88;2.08;;;8.00;99.90;;;;;;4924459;29;20050;-82
2023/01/08 05:20:32;;;;;;;2.63;1.67;;;8.00;99.90;;;;;;4939653;29;20043;-81
2023/01/08 05:22:57;;;;;;;6.07;1.98;;;8.00;99.90;;;;;;4923980;29;20162;-81
2023/01/08 05:25:23;;;;;;;2.33;1.63;;;8.00;99.90;;;;;;4924696;28;20047;-81
2023/01/08 05:27:49;;;;;;;1.85;1.40;;;7.90;99.90;;;;;;4922158;28;20039;-82
2023/01/08 05:30:15;;;;;;;1.95;1.40;;;7.90;99.90;;;;;;4915141;29;20564;-82
2023/01/08 05:32:40;;;;;;;2.28;1.40;;;7.90;99.90;;;;;;4904482;28;20045;-81
2023/01/08 05:35:07;;;;;;;6.03;1.95;;;7.90;99.90;;;;;;5004572;28;20049;-81
2023/01/08 05:37:33;;;;;;;5.38;2.10;;;7.90;99.90;;;;;;4992265;28;20072;-81
2023/01/08 05:39:59;;;;;;;3.63;0.90;;;7.80;99.90;;;;;;4923731;29;20568;-81
2023/01/08 05:42:24;;;;;;;3.10;2.42;;;7.90;99.90;;;;;;4906782;29;20048;-81
2023/01/08 05:44:50;;;;;;;5.65;1.63;;;7.80;99.90;;;;;;5005311;28;20051;-81
2023/01/08 05:47:16;;;;;;;6.82;1.83;;;7.80;99.90;;;;;;4923647;28;20101;-81
2023/01/08 05:49:41;;;;;;;2.20;1.67;;;7.80;99.90;;;;;;4924511;29;20051;-81
2023/01/08 05:52:07;;;;;;;2.33;1.27;;;7.80;99.90;;;;;;4923847;29;20028;-81
2023/01/08 05:54:32;;;;;;;1.33;1.15;;;7.80;99.90;;;;;;4924172;29;20310;-81
2023/01/08 05:56:58;;;;;;;5.25;1.10;;;7.80;99.90;;;;;;4922307;29;20043;-81
2023/01/08 05:59:23;;;;;;;3.72;1.33;;;7.80;99.90;;;;;;4919631;29;20063;-81
2023/01/08 06:01:49;;;;;;;1.35;1.13;;;7.80;99.90;;;;;;4949662;28;20042;-82
2023/01/08 06:04:15;;;;;;;1.42;1.23;;;7.70;99.90;;;;;;5003104;28;20042;-81
2023/01/08 06:06:40;;;;;;;5.30;1.48;;;7.70;99.90;;;;;;4934750;28;20121;-81
2023/01/08 06:09:06;;;;;;;2.72;1.13;;;7.70;99.90;;;;;;4922714;29;20166;-81
2023/01/08 06:11:31;;;;;;;5.43;1.30;;;7.70;99.90;;;;;;4923943;29;20086;-81
2023/01/08 06:13:57;;;;;;;2.90;1.08;;;7.70;99.90;;;;;;4923252;28;20064;-81
2023/01/08 06:16:22;;;;;;;1.83;1.13;;;7.70;99.90;;;;;;4922862;28;20040;-81
2023/01/08 06:18:48;;;;;;;3.90;1.70;;;7.70;99.90;;;;;;4922549;29;20058;-81
2023/01/08 06:21:14;;;;;;;4.15;1.60;;;7.70;99.90;;;;;;4911902;29;20130;-81
2023/01/08 06:23:40;;;;;;;2.58;1.30;;;7.60;99.90;;;;;;4923766;29;20069;-81
2023/01/08 06:26:05;;;;;;;1.17;0.85;;;7.60;99.90;;;;;;4923766;29;20094;-81
2023/01/08 06:28:32;;;;;;;2.15;1.08;;;7.60;99.90;;;;;;4904939;29;20086;-81
2023/01/08 06:31:01;;;;;;;1.58;1.20;;;7.60;99.90;;;;;;4902181;29;20040;-81
2023/01/08 06:33:28;;;;;;;13.10;1.85;;;7.50;99.90;;;;;;4904814;29;20054;-81
2023/01/08 06:35:54;;;;;;;3.38;1.20;;;7.50;99.90;;;;;;4908646;29;20101;-81
2023/01/08 06:38:20;;;;;;;3.35;1.25;;;7.50;99.90;;;;;;4915548;29;20044;-81
2023/01/08 06:40:46;;;;;;;1.40;0.80;;;7.50;99.90;;;;;;5000920;28;20486;-81
2023/01/08 06:43:12;;;;;;;1.67;1.25;;;7.40;99.90;;;;;;4922627;28;20435;-81
2023/01/08 06:45:38;;;;;;;4.35;1.88;;;7.50;99.90;;;;;;4922131;28;20516;-81
2023/01/08 06:48:05;;;;;;;4.70;1.60;;;7.40;99.90;;;;;;4921535;28;20048;-81
2023/01/08 06:50:32;;;;;;;7.43;1.77;;;7.40;99.90;;;;;;4922244;29;20483;-81
2023/01/08 06:52:57;;;;;;;6.22;1.40;;;7.40;99.90;;;;;;4921483;29;20054;-81
2023/01/08 06:55:24;;;;;;;1.92;0.98;;;7.40;99.90;;;;;;4922028;28;20059;-81
2023/01/08 06:57:57;;;;;;;3.53;1.38;;;7.30;99.90;;;;;;4922823;29;20143;-81
2023/01/08 07:00:25;;;;;;;2.95;1.70;;;7.30;99.90;;;;;;4921032;28;20071;-81
2023/01/08 07:02:53;;;;;;;3.08;1.42;;;7.30;99.90;;;;;;4923014;28;20052;-81
2023/01/08 07:05:20;;;;;;;5.40;1.48;;;7.30;99.90;;;;;;4923216;28;20048;-82
2023/01/08 07:07:45;;;;;;;3.80;1.88;;;7.30;99.90;;;;;;4979987;28;20052;-81
2023/01/08 07:10:11;;;;;;;9.45;2.83;;;7.30;99.90;;;;;;4915807;29;20097;-82
2023/01/08 07:12:37;;;;;;;3.63;2.03;;;7.30;99.90;;;;;;4908218;29;20047;-81
2023/01/08 07:15:03;;;;;;;4.63;1.60;;;7.30;99.90;;;;;;4940154;29;20482;-82
2023/01/08 07:17:30;;;;;;;11.43;2.08;;;7.30;99.90;;;;;;4925115;28;20051;-81
2023/01/08 07:19:56;;;;;;;4.25;1.73;;;7.30;99.90;;;;;;4923758;29;20050;-82
2023/01/08 07:22:23;;;;;;;4.93;1.60;;;7.30;99.90;;;;;;4926298;29;20070;-82
2023/01/08 07:24:48;;;;;;;3.85;2.35;;;7.30;99.90;;;;;;4908800;28;20052;-82
2023/01/08 07:27:14;;;;;;;2.22;0.90;;;7.30;99.90;;;;;;4916619;28;20040;-81
2023/01/08 07:29:39;;;;;;;6.28;1.35;;;7.30;99.90;;;;;;4926582;29;20047;-82
2023/01/08 07:32:05;;;;;;;2.95;1.45;;;7.30;99.90;;;;;;4925018;28;20062;-81
2023/01/08 07:34:31;;;;;;;7.45;2.00;;;7.20;99.90;;;;;;4926330;29;20072;-82
2023/01/08 07:37:00;;;;;;;3.60;2.05;;;7.20;99.90;;;;;;4925112;29;20486;-81
2023/01/08 07:39:25;;;;;;;1.73;1.05;;;7.20;99.90;;;;;;4916308;29;20518;-81
2023/01/08 07:41:51;;;;;;;2.30;2.05;;;7.20;99.90;;;;;;4917675;28;20058;-82
2023/01/08 07:44:16;;;;;;;4.18;1.80;;;7.20;99.90;;;;;;4914957;29;20459;-81
2023/01/08 07:46:42;;;;;;;2.97;1.80;;;7.20;99.90;;;;;;4905304;28;20051;-81
2023/01/08 07:49:08;;;;;;;2.97;2.17;;;7.20;99.90;;;;;;4972321;28;20460;-81
2023/01/08 07:51:33;;;;;;;7.07;1.55;;;7.20;99.90;;;;;;4906159;28;20375;-81
2023/01/08 07:53:59;;;;;;;4.93;2.53;;;7.20;99.90;;;;;;4905643;29;20083;-81
2023/01/08 07:56:25;;;;;;;3.13;2.25;;;7.10;99.90;;;;;;4907334;28;20040;-81
2023/01/08 07:58:51;;;;;;;12.95;3.40;;;7.20;99.90;;;;;;4906966;29;20052;-82
2023/01/08 08:01:17;;;;;;;4.55;2.17;;;7.10;99.90;;;;;;4905002;29;20063;-81
2023/01/08 08:03:42;;;;;;;4.90;1.85;;;7.10;99.90;;;;;;4906730;29;20130;-81
2023/01/08 08:06:08;;;;;;;3.85;2.65;;;7.10;99.90;;;;;;4906572;28;20907;-81
2023/01/08 08:08:34;;;;;;;5.38;3.00;;;7.10;99.90;;;;;;4902780;28;20051;-82
2023/01/08 08:11:00;;;;;;;6.70;2.65;;;7.10;99.90;;;;;;4925154;29;20424;-81
2023/01/08 08:13:25;;;;;;;3.28;1.35;;;7.00;99.90;;;;;;4924753;28;20055;-81
2023/01/08 08:15:51;;;;;;;4.43;3.38;;;7.10;99.90;;;;;;4924455;29;20043;-82
2023/01/08 08:18:16;;;;;;;5.75;3.55;;;7.10;99.90;;;;;;4924837;29;20463;-81
2023/01/08 08:20:42;;;;;;;5.57;1.80;;;7.10;99.90;;;;;;4993439;28;20043;-82
2023/01/08 08:23:13;;;;;;;4.90;1.83;;;7.10;99.90;;;;;;4927050;29;20322;-82
2023/01/08 08:25:40;;;;;;;2.15;1.40;;;7.10;99.90;;;;;;4906230;29;20040;-82
2023/01/08 08:28:06;;;;;;;3.55;2.17;;;7.10;99.90;;;;;;4909969;29;20047;-81
2023/01/08 08:30:33;;;;;;;4.50;1.60;;;7.10;99.90;;;;;;4905981;29;20044;-82
2023/01/08 08:33:00;;;;;;;6.28;2.47;;;7.10;99.90;;;;;;4906221;29;20055;-82
2023/01/08 08:35:26;;;;;;;2.25;1.10;;;7.10;99.90;;;;;;4905009;29;20087;-82
2023/01/08 08:37:55;;;;;;;4.00;2.05;;;7.10;99.90;;;;;;4905445;29;20044;-81
2023/01/08 08:40:21;;;;;;;5.07;1.75;;;7.10;99.90;;;;;;4923970;29;20044;-82
2023/01/08 08:42:47;;;;;;;4.05;2.63;;;7.10;99.90;;;;;;4925465;28;20039;-81
2023/01/08 08:45:12;;;;;;;4.85;2.13;;;7.10;99.90;;;;;;4923491;28;20131;-82
2023/01/08 08:47:38;;;;;;;6.45;1.92;;;7.10;99.90;;;;;;4913582;29;20060;-81
2023/01/08 08:50:05;;;;;;;2.90;1.63;;;7.10;99.90;;;;;;4904675;29;20041;-81
2023/01/08 08:52:32;;;;;;;6.53;1.98;;;7.10;99.90;;;;;;4921592;29;20410;-81
2023/01/08 08:54:59;;;;;;;5.85;1.55;;;7.10;99.90;;;;;;4924760;29;20102;-81
2023/01/08 08:57:25;;;;;;;2.10;1.20;;;7.10;99.90;;;;;;4939819;29;20075;-81
2023/01/08 08:59:51;;;;;;;7.53;2.53;;;7.10;99.90;;;;;;4938615;28;20052;-81
2023/01/08 09:02:16;;;;;;;4.53;1.60;;;7.10;99.90;;;;;;4923905;28;20113;-82
2023/01/08 09:04:42;;;;;;;7.03;1.45;;;7.10;99.90;;;;;;4924267;28;20055;-81
2023/01/08 09:07:08;;;;;;;3.95;1.88;;;7.20;99.90;;;;;;4924660;29;20048;-82
2023/01/08 09:09:33;;;;;;;4.55;1.65;;;7.20;99.90;;;;;;4924829;28;20051;-81
2023/01/08 09:11:59;;;;;;;8.32;2.30;;;7.20;99.90;;;;;;4924460;28;20075;-81
2023/01/08 09:14:25;;;;;;;2.75;2.03;;;7.20;99.90;;;;;;4924624;29;20051;-81
2023/01/08 09:16:50;;;;;;;4.38;1.95;;;7.20;99.90;;;;;;4923382;28;20183;-82
2023/01/08 09:19:16;;;;;;;3.22;1.88;;;7.20;99.90;;;;;;4923813;29;20475;-81
2023/01/08 09:21:42;;;;;;;5.10;2.38;;;7.20;99.90;;;;;;4924169;29;20071;-81
2023/01/08 09:24:08;;;;;;;5.55;2.15;;;7.20;99.90;;;;;;4922653;29;20058;-81
2023/01/08 09:26:33;;;;;;;6.28;2.45;;;7.20;99.90;;;;;;4923916;29;20039;-81
2023/01/08 09:28:59;;;;;;;3.63;2.03;;;7.20;99.90;;;;;;4923761;28;20036;-82
2023/01/08 09:31:25;;;;;;;3.20;1.92;;;7.30;99.90;;;;;;4922230;28;20676;-82
2023/01/08 09:33:51;;;;;;;5.20;1.77;;;7.30;99.90;;;;;;5005776;28;20050;-82
2023/01/08 09:36:18;;;;;;;5.93;1.40;;;7.30;99.90;;;;;;4924710;29;20086;-81
2023/01/08 09:38:44;;;;;;;4.57;2.60;;;7.30;99.90;;;;;;4922363;29;20095;-81
2023/01/08 09:41:20;;;;;;;3.95;1.75;;;7.30;99.90;;;;;;4903807;29;20114;-81
2023/01/08 09:43:49;;;;;;;3.10;2.60;;;7.30;99.90;;;;;;4904208;29;20048;-82
2023/01/08 09:46:17;;;;;;;13.43;2.50;;;7.30;99.90;;;;;;4903780;28;20119;-81
2023/01/08 09:48:43;;;;;;;13.75;2.20;;;7.40;99.90;;;;;;4916214;29;20055;-81
2023/01/08 09:51:14;;;;;;;4.78;1.38;;;7.40;99.90;;;;;;4922282;29;20557;-81
2023/01/08 09:53:42;;;;;;;4.15;3.10;;;7.50;99.90;;;;;;4922324;29;20430;-81
2023/01/08 09:56:16;;;;;;;5.85;2.13;;;7.40;99.90;;;;;;4923051;29;20061;-80
2023/01/08 09:58:51;;;;;;;3.28;1.83;;;7.40;99.90;;;;;;4915176;28;20071;-80
2023/01/08 10:01:23;;;;;;;7.53;1.80;;;7.50;99.90;;;;;;4948818;28;20044;-78
2023/01/08 10:04:14;;;;;;;11.75;2.63;;;7.50;99.90;;;;;;4915413;28;20056;-79
2023/01/08 10:06:45;;;;;;;9.90;2.90;;;7.50;99.90;;;;;;4917659;29;20048;-81
2023/01/08 10:09:13;;;;;;;8.07;2.15;;;7.50;99.90;;;;;;4919664;28;20040;-81
2023/01/08 10:11:43;;;;;;;8.82;2.03;;;7.50;99.90;;;;;;4917746;29;20039;-80
2023/01/08 10:14:39;;;;;;;14.25;2.20;;;7.60;99.90;;;;;;4912543;28;20044;-82
2023/01/08 10:17:27;;;;;;;5.35;2.45;;;7.60;99.90;;;;;;4904938;29;20106;-81
2023/01/08 10:19:53;;;;;;;8.90;1.90;;;7.60;99.90;;;;;;4912929;29;20036;-82
2023/01/08 10:22:22;;;;;;;4.68;2.10;;;7.60;99.90;;;;;;4910690;28;20139;-81
2023/01/08 10:24:49;;;;;;;3.55;2.10;;;7.60;99.90;;;;;;4923057;29;20040;-80
2023/01/08 10:27:18;;;;;;;3.53;1.60;;;7.60;99.90;;;;;;4921001;28;20128;-80
2023/01/08 10:29:43;;;;;;;4.75;1.83;;;7.60;99.90;;;;;;4922794;29;20055;-82
2023/01/08 10:32:33;;;;;;;11.68;1.77;;;7.70;99.90;;;;;;4915653;28;20044;-79
2023/01/08 10:35:03;;;;;;;4.47;1.33;;;7.60;99.90;;;;;;4908777;29;20372;-79
2023/01/08 10:37:46;;;;;;;5.72;2.05;;;7.70;99.90;;;;;;4911805;29;20040;-79
2023/01/08 10:40:41;;;;;;;5.43;2.47;;;7.70;99.90;;;;;;4911830;29;20039;-79
2023/01/08 10:43:17;;;;;;;4.18;2.08;;;7.70;99.90;;;;;;4907228;28;20090;-79
2023/01/08 10:45:53;;;;;;;5.80;3.60;;;7.70;99.90;;;;;;4933787;28;20054;-79
2023/01/08 10:48:19;;;;;;;4.93;1.95;;;7.70;99.90;;;;;;4909568;28;20113;-80
2023/01/08 10:50:46;;;;;;;9.02;2.38;;;7.70;99.90;;;;;;4925224;29;20159;-79
2023/01/08 10:53:27;;;;;;;7.85;2.38;;;7.70;99.90;;;;;;4913691;29;20044;-79
2023/01/08 10:56:03;;;;;;;5.28;2.08;;;7.70;99.90;;;;;;4918412;29;20081;-80
2023/01/08 10:58:39;;;;;;;4.05;2.03;;;7.80;99.90;;;;;;4911138;29;20052;-80
2023/01/08 11:01:15;;;;;;;14.85;1.88;;;7.70;99.90;;;;;;4898657;28;20052;-79
2023/01/08 11:03:41;;;;;;;10.30;3.05;;;7.70;99.90;;;;;;5009921;28;20047;-79
2023/01/08 11:06:12;;;;;;;5.47;1.85;;;7.80;99.90;;;;;;4920254;29;20050;-79
2023/01/08 11:08:38;;;;;;;6.43;3.03;;;7.80;99.90;;;;;;4922042;29;20555;-79
2023/01/08 11:11:07;;;;;;;4.00;1.98;;;7.80;99.90;;;;;;4925860;29;20047;-79
2023/01/08 11:13:32;;;;;;;7.53;3.03;;;7.80;99.90;;;;;;4925475;29;20115;-79
2023/01/08 11:16:09;;;;;;;7.03;2.33;;;7.80;99.90;;;;;;4915782;28;20127;-81
2023/01/08 11:18:50;;;;;;;3.60;2.95;;;7.80;99.90;;;;;;4921645;28;20058;-81
2023/01/08 11:21:23;;;;;;;5.13;1.35;;;7.80;99.90;;;;;;4917149;29;20054;-81
2023/01/08 11:24:21;;;;;;;4.65;1.63;;;7.80;99.90;;;;;;4947995;28;20051;-81
2023/01/08 11:27:01;;;;;;;8.77;2.40;;;7.90;99.90;;;;;;4908372;29;20094;-79
2023/01/08 11:29:45;;;;;;;6.22;1.38;;;7.80;99.90;;;;;;4912996;29;20055;-79
2023/01/08 11:32:40;;;;;;;9.70;1.70;;;7.90;99.90;;;;;;4935520;28;20044;-81
2023/01/08 11:35:15;;;;;;;3.65;1.48;;;7.90;99.90;;;;;;4908473;28;20044;-80
2023/01/08 11:37:49;;;;;;;2.50;1.52;;;7.90;99.90;;;;;;4912093;28;20082;-83
2023/01/08 11:40:17;;;;;;;5.80;1.65;;;7.90;99.90;;;;;;4912529;29;20110;-81
2023/01/08 11:43:12;;;;;;;2.45;2.20;;;7.90;99.90;;;;;;4926135;29;20139;-87
2023/01/08 11:46:10;;;;;;;2.67;1.92;;;7.90;99.90;;;;;;4920480;28;20508;-82
2023/01/08 11:48:57;;;;;;;1.95;1.35;;;7.90;99.90;;;;;;4906352;28;20134;-82
2023/01/08 11:51:34;;;;;;;7.13;2.35;;;8.00;99.90;;;;;;4910332;28;20072;-90
2023/01/08 11:54:12;;;;;;;6.82;1.27;;;8.00;99.90;;;;;;4916985;28;20044;-87
2023/01/08 11:57:05;;;;;;;4.93;1.92;;;8.00;99.90;;;;;;4922486;29;20545;-87
2023/01/08 12:00:09;;;;;;;14.48;2.15;;;8.00;99.90;;;;;;4917306;28;20125;-90
2023/01/08 12:02:55;;;;;;;9.48;1.77;;;8.00;99.90;;;;;;5024057;28;20053;-84
2023/01/08 12:05:28;;;;;;;4.68;2.97;;;8.00;99.90;;;;;;4922530;28;20055;-85
2023/01/08 12:08:16;;;;;;;2.97;2.22;;;8.00;99.90;;;;;;4939889;28;20043;-86
2023/01/08 12:11:13;;;;;;;4.20;1.70;;;8.00;99.90;;;;;;4936536;29;20098;-83
2023/01/08 12:13:57;;;;;;;3.08;2.28;;;8.10;99.90;;;;;;4933485;28;20078;-82
2023/01/08 12:16:46;;;;;;;8.88;2.65;;;8.00;99.90;;;;;;4918984;28;20060;-84
2023/01/08 12:19:33;;;;;;;3.58;2.20;;;8.10;99.90;;;;;;4924248;29;20040;-82
2023/01/08 12:22:20;;;;;;;4.35;1.90;;;8.10;99.90;;;;;;4921377;29;20054;-82
2023/01/08 12:25:15;;;;;;;11.15;1.85;;;8.10;99.90;;;;;;4924218;29;20518;-80
2023/01/08 12:28:08;;;;;;;5.28;1.75;;;8.10;99.90;;;;;;5007762;28;20131;-80
2023/01/08 12:30:52;;;;;;;6.40;2.25;;;8.10;99.90;;;;;;4924352;29;20054;-80
2023/01/08 12:33:43;;;;;;;4.50;2.40;;;8.10;99.90;;;;;;4915307;28;20067;-80
2023/01/08 12:36:13;;;;;;;2.30;1.40;;;8.10;99.90;;;;;;4905102;28;20216;-80
2023/01/08 12:38:43;;;;;;;7.47;3.20;;;8.10;99.90;;;;;;4905045;29;20055;-80
2023/01/08 12:41:16;;;;;;;4.97;2.05;;;8.10;99.90;;;;;;4904537;28;20044;-80
2023/01/08 12:43:59;;;;;;;3.97;2.55;;;8.10;99.90;;;;;;4919965;29;20401;-80
2023/01/08 12:46:28;;;;;;;5.43;1.85;;;8.10;99.90;;;;;;4890477;28;20324;-81
2023/01/08 12:48:55;;;;;;;4.22;2.42;;;8.10;99.90;;;;;;4904439;28;20087;-80
2023/01/08 12:51:42;;;;;;;6.60;2.42;;;8.10;99.90;;;;;;4918506;29;20043;-81
2023/01/08 12:54:30;;;;;;;9.48;3.08;;;8.20;99.90;;;;;;4913878;28;20059;-80
2023/01/08 12:57:09;;;;;;;5.32;2.22;;;8.20;99.90;;;;;;4905672;29;20447;-80
2023/01/08 12:59:58;;;;;;;12.20;3.92;;;8.20;99.90;;;;;;4903224;29;20132;-80
2023/01/08 13:02:49;;;;;;;5.45;2.55;;;8.30;99.90;;;;;;4905633;28;20498;-81
2023/01/08 13:05:18;;;;;;;7.60;2.45;;;8.20;99.90;;;;;;4915554;28;20494;-80
2023/01/08 13:07:59;;;;;;;3.35;1.80;;;8.30;99.90;;;;;;4924061;28;20486;-80
2023/01/08 13:10:31;;;;;;;7.82;2.10;;;8.30;99.90;;;;;;4919780;29;20118;-81
2023/01/08 13:13:00;;;;;;;7.00;1.92;;;8.30;99.90;;;;;;4906268;29;20136;-80